sensor_id;sensor_type;location;lat;lon;timestamp;temperature;humidity
21590;DHT22;10957;50.968;6.828;2023-05-16T00:03:04;11.20;1.00
21590;DHT22;10957;50.968;6.828;2023-05-16T00:08:06;11.30;1.00
21590;DHT22;10957;50.968;6.828;2023-05-16T00:13:07;11.40;1.00
21590;DHT22;10957;50.968;6.828;2023-05-16T00:18:10;11.10;1.00
21590;DHT22;10957;50.968;6.828;2023-05-16T00:23:15;11.10;1.00
21590;DHT22;10957;50.968;6.828;2023-05-16T00:28:17;11.20;1.00
21590;DHT22;10957;50.968;6.828;2023-05-16T00:33:18;11.50;1.00
21590;DHT22;10957;50.968;6.828;2023-05-16T00:38:19;11.30;1.00
21590;DHT22;10957;50.968;6.828;2023-05-16T00:43:20;11.40;1.00
21590;DHT22;10957;50.968;6.828;2023-05-16T00:48:25;11.20;1.00
21590;DHT22;10957;50.968;6.828;2023-05-16T00:53:26;11.10;1.00
21590;DHT22;10957;50.968;6.828;2023-05-16T00:58:29;11.00;12.40
21590;DHT22;10957;50.968;6.828;2023-05-16T01:03:32;11.10;20.20
21590;DHT22;10957;50.968;6.828;2023-05-16T01:08:34;11.00;36.40
21590;DHT22;10957;50.968;6.828;2023-05-16T01:13:59;10.90;73.60
21590;DHT22;10957;50.968;6.828;2023-05-16T01:24:39;10.80;93.00
21590;DHT22;10957;50.968;6.828;2023-05-16T01:29:43;10.90;95.80
21590;DHT22;10957;50.968;6.828;2023-05-16T01:34:45;10.70;96.90
21590;DHT22;10957;50.968;6.828;2023-05-16T01:39:58;10.70;98.60
21590;DHT22;10957;50.968;6.828;2023-05-16T01:45:19;10.60;99.90
21590;DHT22;10957;50.968;6.828;2023-05-16T01:50:24;10.70;99.90
21590;DHT22;10957;50.968;6.828;2023-05-16T01:55:51;10.60;99.90
21590;DHT22;10957;50.968;6.828;2023-05-16T02:00:53;10.30;99.90
21590;DHT22;10957;50.968;6.828;2023-05-16T02:05:54;10.30;99.90
21590;DHT22;10957;50.968;6.828;2023-05-16T02:10:56;10.50;99.90
21590;DHT22;10957;50.968;6.828;2023-05-16T02:15:57;10.50;99.90
21590;DHT22;10957;50.968;6.828;2023-05-16T02:20:58;10.50;99.90
21590;DHT22;10957;50.968;6.828;2023-05-16T02:25:59;10.20;99.90
21590;DHT22;10957;50.968;6.828;2023-05-16T02:31:01;10.20;99.90
21590;DHT22;10957;50.968;6.828;2023-05-16T02:36:03;10.30;99.90
21590;DHT22;10957;50.968;6.828;2023-05-16T02:41:04;10.30;99.90
21590;DHT22;10957;50.968;6.828;2023-05-16T02:46:19;10.20;99.90
21590;DHT22;10957;50.968;6.828;2023-05-16T02:51:22;10.20;99.90
21590;DHT22;10957;50.968;6.828;2023-05-16T02:56:24;10.10;99.90
21590;DHT22;10957;50.968;6.828;2023-05-16T03:01:26;10.20;99.90
21590;DHT22;10957;50.968;6.828;2023-05-16T03:06:27;10.10;99.90
21590;DHT22;10957;50.968;6.828;2023-05-16T03:11:30;10.00;99.90
21590;DHT22;10957;50.968;6.828;2023-05-16T03:16:31;10.00;99.90
21590;DHT22;10957;50.968;6.828;2023-05-16T03:21:32;10.00;99.90
21590;DHT22;10957;50.968;6.828;2023-05-16T03:26:34;9.60;99.90
21590;DHT22;10957;50.968;6.828;2023-05-16T03:31:35;9.70;99.90
21590;DHT22;10957;50.968;6.828;2023-05-16T03:36:38;9.50;99.90
21590;DHT22;10957;50.968;6.828;2023-05-16T03:41:41;9.60;99.90
21590;DHT22;10957;50.968;6.828;2023-05-16T03:46:42;9.60;94.30
21590;DHT22;10957;50.968;6.828;2023-05-16T03:51:43;9.60;94.90
21590;DHT22;10957;50.968;6.828;2023-05-16T03:56:45;9.60;92.80
21590;DHT22;10957;50.968;6.828;2023-05-16T04:01:46;9.50;90.50
21590;DHT22;10957;50.968;6.828;2023-05-16T04:06:47;9.50;90.00
21590;DHT22;10957;50.968;6.828;2023-05-16T04:11:49;9.30;68.40
21590;DHT22;10957;50.968;6.828;2023-05-16T04:16:50;9.50;66.60
21590;DHT22;10957;50.968;6.828;2023-05-16T04:21:51;9.70;65.50
21590;DHT22;10957;50.968;6.828;2023-05-16T04:26:53;9.30;37.40
21590;DHT22;10957;50.968;6.828;2023-05-16T04:31:55;9.40;29.70
21590;DHT22;10957;50.968;6.828;2023-05-16T04:36:56;9.50;30.70
21590;DHT22;10957;50.968;6.828;2023-05-16T04:41:57;9.20;34.20
21590;DHT22;10957;50.968;6.828;2023-05-16T04:46:59;9.20;17.90
21590;DHT22;10957;50.968;6.828;2023-05-16T04:52:00;9.10;1.00
21590;DHT22;10957;50.968;6.828;2023-05-16T04:57:02;9.00;1.00
21590;DHT22;10957;50.968;6.828;2023-05-16T05:02:03;8.80;1.00
21590;DHT22;10957;50.968;6.828;2023-05-16T05:07:05;9.00;1.00
21590;DHT22;10957;50.968;6.828;2023-05-16T05:12:06;9.00;1.00
21590;DHT22;10957;50.968;6.828;2023-05-16T05:17:08;8.80;1.00
21590;DHT22;10957;50.968;6.828;2023-05-16T05:22:09;8.90;1.00
21590;DHT22;10957;50.968;6.828;2023-05-16T05:27:10;8.80;1.00
21590;DHT22;10957;50.968;6.828;2023-05-16T05:32:12;8.80;1.00
21590;DHT22;10957;50.968;6.828;2023-05-16T05:37:13;8.80;1.00
21590;DHT22;10957;50.968;6.828;2023-05-16T05:42:15;8.80;1.00
21590;DHT22;10957;50.968;6.828;2023-05-16T05:47:16;8.90;1.00
21590;DHT22;10957;50.968;6.828;2023-05-16T05:52:17;8.70;1.00
21590;DHT22;10957;50.968;6.828;2023-05-16T05:57:18;8.70;1.00
21590;DHT22;10957;50.968;6.828;2023-05-16T06:02:20;9.10;1.00
21590;DHT22;10957;50.968;6.828;2023-05-16T06:07:23;9.20;1.00
21590;DHT22;10957;50.968;6.828;2023-05-16T06:12:24;9.40;1.00
21590;DHT22;10957;50.968;6.828;2023-05-16T06:17:25;9.40;1.00
21590;DHT22;10957;50.968;6.828;2023-05-16T06:22:26;9.50;1.00
21590;DHT22;10957;50.968;6.828;2023-05-16T06:27:28;9.40;1.00
21590;DHT22;10957;50.968;6.828;2023-05-16T06:32:29;9.50;99.90
21590;DHT22;10957;50.968;6.828;2023-05-16T06:37:30;9.30;99.90
21590;DHT22;10957;50.968;6.828;2023-05-16T06:42:31;9.40;99.90
21590;DHT22;10957;50.968;6.828;2023-05-16T06:47:33;9.60;99.90
21590;DHT22;10957;50.968;6.828;2023-05-16T06:52:34;9.50;99.90
21590;DHT22;10957;50.968;6.828;2023-05-16T06:57:36;9.20;99.90
21590;DHT22;10957;50.968;6.828;2023-05-16T07:02:37;9.60;99.90
21590;DHT22;10957;50.968;6.828;2023-05-16T07:07:38;9.50;99.90
21590;DHT22;10957;50.968;6.828;2023-05-16T07:12:41;9.30;99.90
21590;DHT22;10957;50.968;6.828;2023-05-16T07:17:42;9.30;99.90
21590;DHT22;10957;50.968;6.828;2023-05-16T07:22:44;9.30;99.90
21590;DHT22;10957;50.968;6.828;2023-05-16T07:27:46;9.50;99.90
21590;DHT22;10957;50.968;6.828;2023-05-16T07:32:48;9.50;99.90
21590;DHT22;10957;50.968;6.828;2023-05-16T07:37:49;10.30;99.90
21590;DHT22;10957;50.968;6.828;2023-05-16T07:42:51;12.10;92.60
21590;DHT22;10957;50.968;6.828;2023-05-16T07:47:52;12.00;4.30
21590;DHT22;10957;50.968;6.828;2023-05-16T07:52:53;12.50;1.00
21590;DHT22;10957;50.968;6.828;2023-05-16T07:57:55;13.40;1.00
21590;DHT22;10957;50.968;6.828;2023-05-16T08:02:56;12.30;1.00
21590;DHT22;10957;50.968;6.828;2023-05-16T08:07:58;12.90;1.00
21590;DHT22;10957;50.968;6.828;2023-05-16T08:12:59;13.10;1.00
21590;DHT22;10957;50.968;6.828;2023-05-16T08:18:00;15.00;1.00
21590;DHT22;10957;50.968;6.828;2023-05-16T08:23:02;13.10;1.00
21590;DHT22;10957;50.968;6.828;2023-05-16T08:28:03;14.20;1.00
21590;DHT22;10957;50.968;6.828;2023-05-16T08:33:05;14.10;1.00
21590;DHT22;10957;50.968;6.828;2023-05-16T08:38:07;15.30;99.90
21590;DHT22;10957;50.968;6.828;2023-05-16T08:43:09;15.30;99.90
21590;DHT22;10957;50.968;6.828;2023-05-16T08:48:10;15.10;99.90
21590;DHT22;10957;50.968;6.828;2023-05-16T08:53:13;14.90;99.90
21590;DHT22;10957;50.968;6.828;2023-05-16T08:58:18;16.30;99.90
21590;DHT22;10957;50.968;6.828;2023-05-16T09:03:20;14.30;99.90
21590;DHT22;10957;50.968;6.828;2023-05-16T09:08:23;12.30;99.90
21590;DHT22;10957;50.968;6.828;2023-05-16T09:13:25;13.40;99.90
21590;DHT22;10957;50.968;6.828;2023-05-16T09:18:26;13.90;99.90
21590;DHT22;10957;50.968;6.828;2023-05-16T09:23:28;13.90;99.90
21590;DHT22;10957;50.968;6.828;2023-05-16T09:28:29;14.20;99.90
21590;DHT22;10957;50.968;6.828;2023-05-16T09:33:31;15.30;99.90
21590;DHT22;10957;50.968;6.828;2023-05-16T09:38:32;16.00;99.90
21590;DHT22;10957;50.968;6.828;2023-05-16T09:43:38;14.40;99.90
21590;DHT22;10957;50.968;6.828;2023-05-16T09:48:46;14.60;99.90
21590;DHT22;10957;50.968;6.828;2023-05-16T09:53:48;14.50;99.90
21590;DHT22;10957;50.968;6.828;2023-05-16T09:58:51;14.00;99.90
21590;DHT22;10957;50.968;6.828;2023-05-16T10:03:52;13.20;99.90
21590;DHT22;10957;50.968;6.828;2023-05-16T10:08:53;14.10;99.90
21590;DHT22;10957;50.968;6.828;2023-05-16T10:13:55;14.50;99.90
21590;DHT22;10957;50.968;6.828;2023-05-16T10:18:57;15.50;99.90
21590;DHT22;10957;50.968;6.828;2023-05-16T10:24:02;15.00;99.90
21590;DHT22;10957;50.968;6.828;2023-05-16T10:29:05;13.80;99.90
21590;DHT22;10957;50.968;6.828;2023-05-16T10:34:07;14.30;99.90
21590;DHT22;10957;50.968;6.828;2023-05-16T10:39:10;13.70;99.90
21590;DHT22;10957;50.968;6.828;2023-05-16T10:44:13;13.50;99.90
21590;DHT22;10957;50.968;6.828;2023-05-16T10:49:23;13.40;99.90
21590;DHT22;10957;50.968;6.828;2023-05-16T10:54:39;14.00;99.90
21590;DHT22;10957;50.968;6.828;2023-05-16T10:59:46;13.40;99.90
21590;DHT22;10957;50.968;6.828;2023-05-16T11:04:48;14.00;99.90
21590;DHT22;10957;50.968;6.828;2023-05-16T11:10:07;15.50;99.90
21590;DHT22;10957;50.968;6.828;2023-05-16T11:15:20;14.90;99.90
21590;DHT22;10957;50.968;6.828;2023-05-16T11:20:30;14.70;99.90
21590;DHT22;10957;50.968;6.828;2023-05-16T11:25:35;13.90;99.90
21590;DHT22;10957;50.968;6.828;2023-05-16T11:30:59;13.90;99.90
21590;DHT22;10957;50.968;6.828;2023-05-16T11:36:06;13.60;99.90
21590;DHT22;10957;50.968;6.828;2023-05-16T11:41:08;14.50;99.90
21590;DHT22;10957;50.968;6.828;2023-05-16T11:46:11;14.50;99.90
21590;DHT22;10957;50.968;6.828;2023-05-16T11:51:12;14.20;99.90
21590;DHT22;10957;50.968;6.828;2023-05-16T11:56:19;13.80;99.90
21590;DHT22;10957;50.968;6.828;2023-05-16T12:01:22;13.90;99.90
21590;DHT22;10957;50.968;6.828;2023-05-16T12:06:23;14.60;99.90
21590;DHT22;10957;50.968;6.828;2023-05-16T12:11:24;15.00;99.90
21590;DHT22;10957;50.968;6.828;2023-05-16T12:16:26;14.70;99.90
21590;DHT22;10957;50.968;6.828;2023-05-16T12:21:27;14.70;99.90
21590;DHT22;10957;50.968;6.828;2023-05-16T12:26:30;15.10;99.90
21590;DHT22;10957;50.968;6.828;2023-05-16T12:31:35;15.30;99.90
21590;DHT22;10957;50.968;6.828;2023-05-16T12:36:37;14.60;99.90
21590;DHT22;10957;50.968;6.828;2023-05-16T12:41:40;14.30;99.90
21590;DHT22;10957;50.968;6.828;2023-05-16T12:46:47;14.10;99.90
21590;DHT22;10957;50.968;6.828;2023-05-16T12:51:54;14.10;99.90
21590;DHT22;10957;50.968;6.828;2023-05-16T12:56:55;14.60;99.90
21590;DHT22;10957;50.968;6.828;2023-05-16T13:01:57;14.30;99.90
21590;DHT22;10957;50.968;6.828;2023-05-16T13:06:58;14.20;99.90
21590;DHT22;10957;50.968;6.828;2023-05-16T13:11:59;13.90;99.90
21590;DHT22;10957;50.968;6.828;2023-05-16T13:17:01;14.40;99.90
21590;DHT22;10957;50.968;6.828;2023-05-16T13:22:02;14.60;99.90
21590;DHT22;10957;50.968;6.828;2023-05-16T13:27:04;15.20;99.90
21590;DHT22;10957;50.968;6.828;2023-05-16T13:32:05;15.50;99.90
21590;DHT22;10957;50.968;6.828;2023-05-16T13:37:07;15.70;99.90
21590;DHT22;10957;50.968;6.828;2023-05-16T13:42:08;15.70;99.90
21590;DHT22;10957;50.968;6.828;2023-05-16T13:47:10;15.70;99.90
21590;DHT22;10957;50.968;6.828;2023-05-16T13:52:11;16.40;99.90
21590;DHT22;10957;50.968;6.828;2023-05-16T13:57:13;16.50;99.90
21590;DHT22;10957;50.968;6.828;2023-05-16T14:02:14;16.40;99.90
21590;DHT22;10957;50.968;6.828;2023-05-16T14:07:16;16.40;99.90
21590;DHT22;10957;50.968;6.828;2023-05-16T14:12:17;16.20;99.90
21590;DHT22;10957;50.968;6.828;2023-05-16T14:17:18;15.60;99.90
21590;DHT22;10957;50.968;6.828;2023-05-16T14:22:19;15.00;99.20
21590;DHT22;10957;50.968;6.828;2023-05-16T14:27:20;16.00;99.90
21590;DHT22;10957;50.968;6.828;2023-05-16T14:32:22;16.40;88.50
21590;DHT22;10957;50.968;6.828;2023-05-16T14:37:23;15.70;99.90
21590;DHT22;10957;50.968;6.828;2023-05-16T14:42:25;16.80;99.90
21590;DHT22;10957;50.968;6.828;2023-05-16T14:47:26;16.60;99.90
21590;DHT22;10957;50.968;6.828;2023-05-16T14:52:28;16.70;98.60
21590;DHT22;10957;50.968;6.828;2023-05-16T14:57:30;17.30;99.90
21590;DHT22;10957;50.968;6.828;2023-05-16T15:02:32;16.90;99.90
21590;DHT22;10957;50.968;6.828;2023-05-16T15:07:34;16.00;99.90
21590;DHT22;10957;50.968;6.828;2023-05-16T15:12:36;15.10;99.40
21590;DHT22;10957;50.968;6.828;2023-05-16T15:17:38;14.50;93.00
21590;DHT22;10957;50.968;6.828;2023-05-16T15:22:40;14.30;99.90
21590;DHT22;10957;50.968;6.828;2023-05-16T15:27:41;14.40;99.90
21590;DHT22;10957;50.968;6.828;2023-05-16T15:32:43;14.30;91.00
21590;DHT22;10957;50.968;6.828;2023-05-16T15:37:45;14.10;95.90
21590;DHT22;10957;50.968;6.828;2023-05-16T15:42:46;14.20;83.40
21590;DHT22;10957;50.968;6.828;2023-05-16T15:47:47;14.10;94.30
21590;DHT22;10957;50.968;6.828;2023-05-16T15:52:49;14.20;99.60
21590;DHT22;10957;50.968;6.828;2023-05-16T15:57:50;14.60;92.10
21590;DHT22;10957;50.968;6.828;2023-05-16T16:02:52;15.20;98.40
21590;DHT22;10957;50.968;6.828;2023-05-16T16:07:53;15.70;99.90
21590;DHT22;10957;50.968;6.828;2023-05-16T16:12:58;15.10;99.90
21590;DHT22;10957;50.968;6.828;2023-05-16T16:18:01;15.10;99.50
21590;DHT22;10957;50.968;6.828;2023-05-16T16:23:02;14.70;99.40
21590;DHT22;10957;50.968;6.828;2023-05-16T16:28:03;14.20;91.70
21590;DHT22;10957;50.968;6.828;2023-05-16T16:33:06;14.50;97.50
21590;DHT22;10957;50.968;6.828;2023-05-16T16:38:07;14.10;94.90
21590;DHT22;10957;50.968;6.828;2023-05-16T16:43:09;14.00;99.90
21590;DHT22;10957;50.968;6.828;2023-05-16T16:48:10;13.80;98.20
21590;DHT22;10957;50.968;6.828;2023-05-16T16:53:11;13.80;99.90
21590;DHT22;10957;50.968;6.828;2023-05-16T16:58:13;13.80;99.90
21590;DHT22;10957;50.968;6.828;2023-05-16T17:03:14;13.70;99.90
21590;DHT22;10957;50.968;6.828;2023-05-16T17:08:15;13.80;99.90
21590;DHT22;10957;50.968;6.828;2023-05-16T17:13:17;13.50;99.90
21590;DHT22;10957;50.968;6.828;2023-05-16T17:18:18;13.80;99.90
21590;DHT22;10957;50.968;6.828;2023-05-16T17:23:21;13.70;99.90
21590;DHT22;10957;50.968;6.828;2023-05-16T17:28:22;13.40;99.90
21590;DHT22;10957;50.968;6.828;2023-05-16T17:33:24;13.50;99.90
21590;DHT22;10957;50.968;6.828;2023-05-16T17:38:25;13.40;99.90
21590;DHT22;10957;50.968;6.828;2023-05-16T17:43:28;13.40;99.90
21590;DHT22;10957;50.968;6.828;2023-05-16T17:48:30;13.00;99.90
21590;DHT22;10957;50.968;6.828;2023-05-16T17:53:31;13.10;99.90
21590;DHT22;10957;50.968;6.828;2023-05-16T17:58:32;12.90;99.90
21590;DHT22;10957;50.968;6.828;2023-05-16T18:03:34;12.90;99.90
21590;DHT22;10957;50.968;6.828;2023-05-16T18:08:36;12.80;99.90
21590;DHT22;10957;50.968;6.828;2023-05-16T18:13:37;12.70;99.90
21590;DHT22;10957;50.968;6.828;2023-05-16T18:18:39;12.50;99.90
21590;DHT22;10957;50.968;6.828;2023-05-16T18:23:40;12.30;99.90
21590;DHT22;10957;50.968;6.828;2023-05-16T18:28:42;12.30;99.90
21590;DHT22;10957;50.968;6.828;2023-05-16T18:33:44;12.40;99.90
21590;DHT22;10957;50.968;6.828;2023-05-16T18:38:46;12.30;99.90
21590;DHT22;10957;50.968;6.828;2023-05-16T18:43:47;12.00;99.90
21590;DHT22;10957;50.968;6.828;2023-05-16T18:48:48;12.20;99.90
21590;DHT22;10957;50.968;6.828;2023-05-16T18:53:50;12.00;99.90
21590;DHT22;10957;50.968;6.828;2023-05-16T18:58:51;12.00;99.90
21590;DHT22;10957;50.968;6.828;2023-05-16T19:03:52;11.90;99.90
21590;DHT22;10957;50.968;6.828;2023-05-16T19:08:54;11.80;99.90
21590;DHT22;10957;50.968;6.828;2023-05-16T19:13:55;11.60;99.90
21590;DHT22;10957;50.968;6.828;2023-05-16T19:18:56;11.90;99.90
21590;DHT22;10957;50.968;6.828;2023-05-16T19:23:58;11.50;99.90
21590;DHT22;10957;50.968;6.828;2023-05-16T19:28:59;11.60;99.90
21590;DHT22;10957;50.968;6.828;2023-05-16T19:34:01;11.70;99.90
21590;DHT22;10957;50.968;6.828;2023-05-16T19:39:02;11.60;99.90
21590;DHT22;10957;50.968;6.828;2023-05-16T19:44:04;11.60;99.90
21590;DHT22;10957;50.968;6.828;2023-05-16T19:49:05;11.30;99.90
21590;DHT22;10957;50.968;6.828;2023-05-16T19:54:06;11.50;99.90
21590;DHT22;10957;50.968;6.828;2023-05-16T19:59:08;11.30;99.90
21590;DHT22;10957;50.968;6.828;2023-05-16T20:04:09;11.30;99.90
21590;DHT22;10957;50.968;6.828;2023-05-16T20:09:11;11.10;99.90
21590;DHT22;10957;50.968;6.828;2023-05-16T20:14:12;11.40;99.90
21590;DHT22;10957;50.968;6.828;2023-05-16T20:19:14;11.10;99.90
21590;DHT22;10957;50.968;6.828;2023-05-16T20:24:17;11.20;99.90
21590;DHT22;10957;50.968;6.828;2023-05-16T20:29:18;11.10;99.90
21590;DHT22;10957;50.968;6.828;2023-05-16T20:34:19;11.20;99.90
21590;DHT22;10957;50.968;6.828;2023-05-16T20:39:21;11.00;99.90
21590;DHT22;10957;50.968;6.828;2023-05-16T20:44:22;10.80;99.90
21590;DHT22;10957;50.968;6.828;2023-05-16T20:49:23;10.90;99.90
21590;DHT22;10957;50.968;6.828;2023-05-16T20:54:25;10.90;99.90
21590;DHT22;10957;50.968;6.828;2023-05-16T20:59:26;10.90;99.90
21590;DHT22;10957;50.968;6.828;2023-05-16T21:04:27;10.80;99.90
21590;DHT22;10957;50.968;6.828;2023-05-16T21:09:28;10.80;99.90
21590;DHT22;10957;50.968;6.828;2023-05-16T21:14:30;10.60;99.90
21590;DHT22;10957;50.968;6.828;2023-05-16T21:19:31;10.50;99.90
21590;DHT22;10957;50.968;6.828;2023-05-16T21:24:34;10.50;99.90
21590;DHT22;10957;50.968;6.828;2023-05-16T21:29:37;10.70;99.90
21590;DHT22;10957;50.968;6.828;2023-05-16T21:34:38;10.60;99.90
21590;DHT22;10957;50.968;6.828;2023-05-16T21:39:39;10.60;99.90
21590;DHT22;10957;50.968;6.828;2023-05-16T21:44:41;10.50;99.90
21590;DHT22;10957;50.968;6.828;2023-05-16T21:49:42;10.50;1.00
21590;DHT22;10957;50.968;6.828;2023-05-16T21:54:43;10.50;1.00
21590;DHT22;10957;50.968;6.828;2023-05-16T21:59:51;10.40;1.00
21590;DHT22;10957;50.968;6.828;2023-05-16T22:04:52;10.40;1.00
21590;DHT22;10957;50.968;6.828;2023-05-16T22:09:54;10.10;1.00
21590;DHT22;10957;50.968;6.828;2023-05-16T22:14:56;10.10;1.00
21590;DHT22;10957;50.968;6.828;2023-05-16T22:19:57;10.10;1.00
21590;DHT22;10957;50.968;6.828;2023-05-16T22:24:58;9.50;1.00
21590;DHT22;10957;50.968;6.828;2023-05-16T22:30:00;9.50;1.00
21590;DHT22;10957;50.968;6.828;2023-05-16T22:35:01;9.60;1.00
21590;DHT22;10957;50.968;6.828;2023-05-16T22:40:02;9.50;1.00
21590;DHT22;10957;50.968;6.828;2023-05-16T22:45:04;9.40;1.00
21590;DHT22;10957;50.968;6.828;2023-05-16T22:50:06;9.20;1.00
21590;DHT22;10957;50.968;6.828;2023-05-16T22:55:08;9.20;1.00
21590;DHT22;10957;50.968;6.828;2023-05-16T23:00:09;9.10;1.00
21590;DHT22;10957;50.968;6.828;2023-05-16T23:05:10;9.00;1.00
21590;DHT22;10957;50.968;6.828;2023-05-16T23:10:12;8.90;1.00
21590;DHT22;10957;50.968;6.828;2023-05-16T23:15:13;8.80;1.00
21590;DHT22;10957;50.968;6.828;2023-05-16T23:20:14;8.60;1.00
21590;DHT22;10957;50.968;6.828;2023-05-16T23:25:15;8.70;1.00
21590;DHT22;10957;50.968;6.828;2023-05-16T23:30:17;8.70;1.00
21590;DHT22;10957;50.968;6.828;2023-05-16T23:35:18;8.60;1.00
21590;DHT22;10957;50.968;6.828;2023-05-16T23:40:19;8.40;1.00
21590;DHT22;10957;50.968;6.828;2023-05-16T23:45:21;8.50;1.00
21590;DHT22;10957;50.968;6.828;2023-05-16T23:50:22;8.40;1.00
21590;DHT22;10957;50.968;6.828;2023-05-16T23:55:23;8.20;1.00
